Time;durP1;ratioP1;P1;durP2;ratioP2;P2;SDS_P1;SDS_P2;PMS_P1;PMS_P2;Temp;Humidity;BMP_temperature;BMP_pressure;BME280_temperature;BME280_humidity;BME280_pressure;Samples;Min_cycle;Max_cycle;Signal;HPM_P1;HPM_P2
2021/04/16 00:01:01;;;;;;;13.20;8.15;;;8.90;99.90;;;9.17;53.37;102949.09;5073943;28;20110;-69
2021/04/16 00:03:29;;;;;;;9.30;7.55;;;8.90;99.90;;;9.08;53.23;102951.38;5074173;28;20082;-69
2021/04/16 00:05:58;;;;;;;8.40;7.15;;;8.90;99.90;;;9.00;53.28;102937.03;5074128;28;20044;-68
2021/04/16 00:08:32;;;;;;;7.68;6.88;;;8.80;99.90;;;8.99;53.34;102944.06;5073990;28;20063;-69
2021/04/16 00:11:06;;;;;;;10.32;7.20;;;8.80;99.90;;;8.95;53.66;102942.16;5072506;28;20102;-69
2021/04/16 00:13:37;;;;;;;10.25;7.63;;;8.70;99.90;;;8.96;53.90;102937.78;5073714;28;20044;-68
2021/04/16 00:16:07;;;;;;;10.32;7.70;;;8.70;99.90;;;8.94;54.01;102926.25;5072532;28;20044;-69
2021/04/16 00:18:35;;;;;;;7.57;6.35;;;8.80;99.90;;;8.96;54.24;102935.13;5073860;28;20048;-69
2021/04/16 00:21:02;;;;;;;8.15;7.38;;;8.70;99.90;;;8.92;54.28;102925.31;5073625;28;20076;-69
2021/04/16 00:23:30;;;;;;;10.60;8.10;;;8.70;99.90;;;8.93;53.94;102921.81;5073652;28;20044;-69
2021/04/16 00:26:00;;;;;;;8.73;7.82;;;8.70;99.90;;;8.92;54.31;102925.31;5073419;28;20041;-69
2021/04/16 00:28:28;;;;;;;8.57;7.25;;;8.70;99.90;;;8.75;53.92;102892.16;5073730;28;20109;-69
2021/04/16 00:31:00;;;;;;;9.68;7.80;;;8.70;99.90;;;8.93;53.39;102913.91;5073612;28;20127;-68
2021/04/16 00:33:29;;;;;;;8.73;7.47;;;8.70;99.90;;;8.80;53.95;102915.22;5073603;28;20072;-68
2021/04/16 00:35:57;;;;;;;9.93;7.65;;;8.60;99.90;;;8.76;53.93;102907.13;5073377;28;20122;-68
2021/04/16 00:38:25;;;;;;;8.65;7.13;;;8.60;99.90;;;8.27;53.65;102798.06;5073249;28;20068;-70
2021/04/16 00:40:55;;;;;;;9.40;7.85;;;8.60;99.90;;;8.80;53.81;102904.66;5071223;28;20392;-69
2021/04/16 00:43:29;;;;;;;9.00;7.90;;;8.60;99.90;;;8.35;53.94;102831.78;5072174;28;20045;-68
2021/04/16 00:46:25;;;;;;;10.30;7.75;;;8.60;99.90;;;8.81;54.07;102911.72;5073266;28;20509;-68
2021/04/16 00:48:58;;;;;;;9.65;8.27;;;8.60;99.90;;;8.77;54.27;102909.81;5067075;28;20045;-70
2021/04/16 00:51:32;;;;;;;10.07;7.80;;;8.60;99.90;;;8.75;54.39;102906.22;5073262;28;20487;-69
2021/04/16 00:54:01;;;;;;;8.73;7.72;;;8.50;99.90;;;8.70;54.59;102904.28;5072996;28;20071;-69
2021/04/16 00:56:30;;;;;;;12.15;7.95;;;8.50;99.90;;;8.72;54.33;102899.94;5073158;28;20048;-70
2021/04/16 00:59:02;;;;;;;11.48;7.70;;;8.50;99.90;;;8.50;54.26;102866.63;5072605;28;20068;-69
2021/04/16 01:01:30;;;;;;;9.02;7.65;;;8.50;99.90;;;8.62;54.85;102898.72;5072894;28;20048;-69
2021/04/16 01:03:57;;;;;;;8.40;7.68;;;8.40;99.90;;;8.62;54.53;102897.81;5072969;28;20044;-69
2021/04/16 01:06:25;;;;;;;8.50;7.60;;;8.40;99.90;;;8.59;54.62;102901.25;5073004;28;20048;-69
2021/04/16 01:08:53;;;;;;;8.85;7.82;;;8.40;99.90;;;8.52;54.75;102882.50;5072936;28;20051;-69
2021/04/16 01:11:21;;;;;;;8.70;7.78;;;8.40;99.90;;;8.59;54.66;102895.09;5071518;28;20426;-69
2021/04/16 01:13:50;;;;;;;9.88;8.30;;;8.40;99.90;;;8.59;54.71;102897.72;5072668;28;20071;-69
2021/04/16 01:16:28;;;;;;;11.13;8.52;;;8.40;99.90;;;8.63;55.14;102895.22;5072627;28;20582;-68
2021/04/16 01:18:57;;;;;;;9.80;8.05;;;8.40;99.90;;;8.71;54.68;102903.44;5072564;28;20040;-69
2021/04/16 01:21:33;;;;;;;10.35;7.93;;;8.50;99.90;;;8.64;55.06;102896.13;5072623;28;20128;-69
2021/04/16 01:24:23;;;;;;;8.95;8.05;;;8.40;99.90;;;8.59;55.22;102896.00;5072620;28;20052;-69
2021/04/16 01:26:51;;;;;;;9.13;8.23;;;8.30;99.90;;;8.59;55.15;102898.63;5071474;28;20052;-70
2021/04/16 01:29:19;;;;;;;10.77;8.55;;;8.40;99.90;;;8.55;55.35;102895.81;5072660;28;20071;-69
2021/04/16 01:31:51;;;;;;;10.48;8.65;;;8.30;99.90;;;8.62;55.05;102890.81;5072702;28;20545;-68
2021/04/16 01:34:22;;;;;;;8.23;7.43;;;8.30;99.90;;;8.57;54.67;102896.75;5072611;28;20052;-69
2021/04/16 01:36:57;;;;;;;10.38;8.82;;;8.40;99.90;;;8.55;55.30;102898.44;5072411;28;20048;-69
2021/04/16 01:39:29;;;;;;;9.30;8.40;;;8.30;99.90;;;8.51;55.23;102915.91;5072686;28;20067;-68
2021/04/16 01:42:01;;;;;;;12.68;8.43;;;8.30;99.90;;;8.53;55.44;102894.84;5088079;28;20049;-69
2021/04/16 01:44:30;;;;;;;9.02;8.13;;;8.30;99.90;;;8.52;55.04;102899.22;5072372;28;20052;-69
2021/04/16 01:47:01;;;;;;;9.57;7.63;;;8.30;99.90;;;8.53;55.10;102897.50;5072495;28;20098;-69
2021/04/16 01:49:34;;;;;;;9.07;8.13;;;8.30;99.90;;;8.52;55.00;102895.69;5087782;28;20673;-69
2021/04/16 01:52:02;;;;;;;9.57;8.40;;;8.30;99.90;;;8.50;55.13;102897.38;5072939;28;20048;-68
2021/04/16 01:54:34;;;;;;;9.25;7.70;;;8.30;99.90;;;8.39;55.35;102896.09;5076708;28;20052;-69
2021/04/16 01:57:06;;;;;;;10.60;8.07;;;8.20;99.90;;;8.38;55.27;102889.03;5076351;28;20522;-69
2021/04/16 01:59:36;;;;;;;8.82;7.65;;;8.10;99.90;;;8.32;55.49;102897.63;5076309;28;20056;-69
2021/04/16 02:02:05;;;;;;;;;;;8.20;99.90;;;8.28;55.58;102892.16;5076765;28;20118;-69
2021/04/16 02:04:35;;;;;;;8.57;7.35;;;8.10;99.90;;;8.38;55.31;102894.31;5075185;28;19990;-68
2021/04/16 02:07:02;;;;;;;10.15;7.22;;;8.10;99.90;;;8.40;55.86;102906.69;5076380;28;20040;-68
2021/04/16 02:09:36;;;;;;;9.13;7.80;;;8.10;99.90;;;8.36;55.35;102885.44;5076136;28;20510;-69
2021/04/16 02:12:06;;;;;;;9.10;8.15;;;8.20;99.90;;;8.34;56.00;102889.75;5076167;28;20055;-68
2021/04/16 02:14:34;;;;;;;9.60;8.68;;;8.10;99.90;;;7.68;56.06;102767.78;5076134;28;20052;-68
2021/04/16 02:17:07;;;;;;;12.00;8.23;;;8.10;99.90;;;8.34;56.00;102889.75;5075952;28;20051;-69
2021/04/16 02:19:44;;;;;;;11.85;8.77;;;8.10;99.90;;;8.39;56.03;102893.44;5076195;28;20054;-68
2021/04/16 02:22:14;;;;;;;10.27;8.15;;;8.10;99.90;;;8.32;55.82;102887.06;5075775;28;20045;-68
2021/04/16 02:24:45;;;;;;;11.93;8.57;;;8.10;99.90;;;8.23;56.38;102881.41;5075949;28;20070;-69
2021/04/16 02:27:23;;;;;;;11.05;8.48;;;8.00;99.90;;;8.24;56.43;102885.84;5091686;28;20075;-70
2021/04/16 02:29:51;;;;;;;11.15;7.95;;;8.00;99.90;;;8.32;56.44;102891.44;5091585;28;20064;-69
2021/04/16 02:32:19;;;;;;;17.23;8.43;;;8.10;99.90;;;8.20;56.43;102881.31;5075608;28;20541;-69
2021/04/16 02:34:47;;;;;;;10.35;8.40;;;8.00;99.90;;;8.21;56.52;102886.63;5075685;28;20399;-69
2021/04/16 02:37:18;;;;;;;9.48;8.35;;;8.00;99.90;;;8.18;56.80;102882.97;5075944;28;20053;-68
2021/04/16 02:39:51;;;;;;;11.18;8.50;;;8.00;99.90;;;8.18;56.81;102883.88;5074170;28;20051;-70
2021/04/16 02:42:18;;;;;;;9.18;8.18;;;7.90;99.90;;;8.06;57.03;102880.78;5075655;28;20380;-68
2021/04/16 02:44:46;;;;;;;9.95;8.55;;;7.90;99.90;;;8.07;56.93;102882.56;5091190;28;20082;-69
2021/04/16 02:47:14;;;;;;;11.20;9.10;;;7.90;99.90;;;8.06;57.58;102872.88;5075530;28;20438;-69
2021/04/16 02:49:43;;;;;;;9.57;8.02;;;7.90;99.90;;;8.09;57.57;102875.59;5075320;28;20505;-69
2021/04/16 02:52:14;;;;;;;9.77;8.30;;;7.90;99.90;;;8.10;57.56;102868.59;5073960;28;20454;-69
2021/04/16 02:54:41;;;;;;;11.07;8.32;;;7.90;99.90;;;8.08;57.62;102871.19;5075191;28;20064;-68
2021/04/16 02:57:09;;;;;;;12.77;8.52;;;7.90;99.90;;;8.08;57.14;102870.28;5075224;28;20044;-69
2021/04/16 02:59:39;;;;;;;9.17;8.23;;;7.90;99.90;;;8.07;57.26;102872.03;5075243;28;20049;-68
2021/04/16 03:02:07;;;;;;;8.93;7.80;;;7.90;99.90;;;8.03;57.57;102877.13;5075243;28;20037;-69
2021/04/16 03:04:36;;;;;;;10.70;8.82;;;7.80;99.90;;;8.08;57.46;102870.28;5074260;28;20399;-68
2021/04/16 03:07:03;;;;;;;9.23;8.32;;;7.80;99.90;;;8.05;57.74;102878.09;5075273;28;20055;-69
2021/04/16 03:09:31;;;;;;;8.95;8.02;;;7.80;99.90;;;8.07;57.85;102877.28;5075127;28;20041;-69
2021/04/16 03:12:00;;;;;;;10.10;8.82;;;7.80;99.90;;;8.01;58.29;102879.69;5074798;28;20452;-68
2021/04/16 03:14:28;;;;;;;10.25;8.40;;;7.70;99.90;;;8.04;58.23;102877.19;5075217;28;20057;-69
2021/04/16 03:16:56;;;;;;;9.30;8.40;;;7.80;99.90;;;8.08;58.14;102876.47;5074873;28;20046;-69
2021/04/16 03:19:26;;;;;;;11.05;8.93;;;7.80;99.90;;;8.12;57.84;102875.75;5074776;28;20479;-68
2021/04/16 03:21:54;;;;;;;9.80;8.18;;;7.90;99.90;;;7.91;58.45;102850.31;5075124;28;20048;-68
2021/04/16 03:24:21;;;;;;;10.23;8.35;;;7.80;99.90;;;7.96;59.05;102872.44;5073429;28;20110;-68
2021/04/16 03:26:48;;;;;;;9.82;8.25;;;7.80;99.90;;;7.89;58.71;102862.53;5074664;28;20041;-68
2021/04/16 03:29:16;;;;;;;9.85;7.95;;;7.80;99.90;;;7.92;59.06;102868.81;5074717;28;20483;-68
2021/04/16 03:31:46;;;;;;;9.60;8.60;;;7.70;99.90;;;7.95;59.46;102863.69;5074587;28;20048;-68
2021/04/16 03:34:14;;;;;;;10.45;8.55;;;7.80;99.90;;;7.98;59.01;102862.88;5074765;28;20059;-68
2021/04/16 03:36:42;;;;;;;9.10;8.20;;;7.80;99.90;;;7.95;59.55;102863.69;5074661;28;20409;-68
2021/04/16 03:39:09;;;;;;;10.48;9.38;;;7.70;99.90;;;7.86;59.25;102854.50;5074483;28;20040;-68
2021/04/16 03:41:37;;;;;;;11.70;8.77;;;7.70;99.90;;;8.02;59.28;102864.78;5073153;28;20048;-68
2021/04/16 03:44:05;;;;;;;12.40;8.95;;;7.80;99.90;;;7.93;59.47;102867.09;5074284;28;20109;-69
2021/04/16 03:46:32;;;;;;;9.48;8.57;;;7.70;99.90;;;7.13;59.50;102740.16;5074620;28;20105;-69
2021/04/16 03:49:01;;;;;;;10.85;8.75;;;7.60;99.90;;;7.80;59.79;102863.06;5074271;28;20044;-70
2021/04/16 03:51:30;;;;;;;10.10;8.38;;;7.60;99.90;;;7.81;59.86;102870.13;5074388;28;20052;-69
2021/04/16 03:54:00;;;;;;;10.57;9.02;;;7.60;99.90;;;7.86;59.94;102871.19;5073987;28;20090;-69
2021/04/16 03:56:27;;;;;;;9.97;8.77;;;7.60;99.90;;;7.81;59.69;102869.22;5074245;28;20143;-69
2021/04/16 03:58:54;;;;;;;10.15;8.75;;;7.60;99.90;;;7.90;59.65;102878.38;5074011;28;20051;-69
2021/04/16 04:01:22;;;;;;;14.32;9.10;;;7.70;99.90;;;7.85;59.68;102877.31;5089887;28;20106;-68
2021/04/16 04:03:49;;;;;;;10.13;9.02;;;7.60;99.90;;;7.82;59.74;102877.19;5074214;28;20044;-68
2021/04/16 04:06:17;;;;;;;9.93;8.90;;;7.60;99.90;;;7.86;59.81;102871.19;5073960;28;20666;-71
2021/04/16 04:08:45;;;;;;;9.40;8.48;;;7.60;99.90;;;7.85;59.42;102874.69;5073930;28;20063;-68
2021/04/16 04:11:12;;;;;;;10.20;9.00;;;7.60;99.90;;;7.81;59.46;102874.50;5073831;28;20072;-70
2021/04/16 04:13:40;;;;;;;9.55;8.63;;;7.60;99.90;;;7.35;59.47;102790.19;5089599;28;20052;-71
2021/04/16 04:16:07;;;;;;;11.38;8.60;;;7.60;99.90;;;7.82;59.48;102869.28;5072864;28;20499;-71
2021/04/16 04:18:35;;;;;;;9.52;8.30;;;7.60;99.90;;;7.68;59.78;102861.69;5073774;28;20051;-72
2021/04/16 04:21:03;;;;;;;11.30;9.00;;;7.60;99.90;;;7.62;59.58;102851.81;5073594;28;20036;-71
2021/04/16 04:23:32;;;;;;;9.82;8.20;;;7.60;99.90;;;7.86;59.25;102871.19;5073545;28;20040;-70
2021/04/16 04:26:05;;;;;;;10.43;8.68;;;7.60;99.90;;;7.84;58.94;102870.25;5073446;28;20114;-70
2021/04/16 04:28:33;;;;;;;10.37;9.00;;;7.60;99.90;;;7.30;59.22;102778.56;5073732;28;20044;-69
2021/04/16 04:31:00;;;;;;;11.23;9.27;;;7.60;99.90;;;7.86;59.45;102873.84;5073894;28;20093;-69
2021/04/16 04:33:28;;;;;;;9.93;8.52;;;7.60;99.90;;;7.72;58.99;102854.00;5073455;28;20044;-69
2021/04/16 04:35:56;;;;;;;9.65;8.60;;;7.70;99.90;;;7.73;58.93;102874.22;5073386;28;20037;-69
2021/04/16 04:38:23;;;;;;;11.23;9.00;;;7.60;99.90;;;7.76;59.34;102879.56;5088782;28;20048;-69
2021/04/16 04:40:52;;;;;;;9.27;8.38;;;7.60;99.90;;;7.81;59.08;102880.69;5073424;28;20048;-69
2021/04/16 04:43:22;;;;;;;10.47;8.50;;;7.60;99.90;;;7.88;58.87;102881.78;5073380;28;20169;-69
2021/04/16 04:45:52;;;;;;;12.40;8.90;;;7.60;99.90;;;7.81;59.07;102880.69;5073389;28;20056;-68
2021/04/16 04:48:22;;;;;;;12.10;8.52;;;7.60;99.90;;;7.82;58.64;102871.91;5088726;28;20048;-69
2021/04/16 04:50:50;;;;;;;10.60;9.50;;;7.60;99.90;;;7.81;58.85;102872.78;5072834;28;20121;-70
2021/04/16 04:53:17;;;;;;;11.13;8.35;;;7.60;99.90;;;7.86;58.73;102879.09;5073015;28;20483;-70
2021/04/16 04:55:47;;;;;;;12.13;8.52;;;7.60;99.90;;;7.82;59.18;102874.56;5072994;28;20446;-69
2021/04/16 04:58:15;;;;;;;10.37;8.57;;;7.60;99.90;;;7.94;58.96;102877.66;5073046;28;20040;-70
2021/04/16 05:00:43;;;;;;;10.68;8.52;;;7.60;99.90;;;7.92;58.92;102879.34;5072871;28;20067;-70
2021/04/16 05:03:10;;;;;;;9.80;8.73;;;7.70;99.90;;;7.85;59.13;102881.69;5088507;28;20048;-70
2021/04/16 05:05:38;;;;;;;12.40;8.98;;;7.60;99.90;;;7.90;59.08;102878.38;5072762;28;20087;-70
2021/04/16 05:08:06;;;;;;;9.65;8.75;;;7.60;99.90;;;7.92;59.15;102879.34;5072735;28;20495;-69
2021/04/16 05:10:33;;;;;;;11.17;8.70;;;7.60;99.90;;;7.91;59.03;102864.38;5072902;28;20044;-70
2021/04/16 05:13:02;;;;;;;10.55;8.27;;;7.70;99.90;;;8.01;59.44;102876.19;5072803;28;20090;-70
2021/04/16 05:15:33;;;;;;;11.15;8.73;;;7.70;99.90;;;7.92;59.18;102846.81;5088209;28;20079;-70
2021/04/16 05:18:00;;;;;;;;;;;7.80;99.90;;;8.25;59.20;102882.38;5073030;28;20047;-70
2021/04/16 05:20:31;;;;;;;9.15;8.15;;;7.90;99.90;;;8.33;58.98;102877.41;5072698;28;20353;-70
2021/04/16 05:22:58;;;;;;;10.07;9.07;;;8.00;99.90;;;8.41;58.63;102883.84;5072775;28;20036;-70
2021/04/16 05:25:26;;;;;;;11.73;8.85;;;8.10;99.90;;;8.50;58.72;102865.72;5072663;28;20049;-70
2021/04/16 05:27:53;;;;;;;12.10;9.27;;;8.30;99.90;;;8.68;58.30;102888.41;5087787;28;20053;-70
2021/04/16 05:30:22;;;;;;;9.68;8.77;;;8.40;99.90;;;8.76;58.12;102888.66;5072438;28;20068;-70
2021/04/16 05:32:53;;;;;;;12.07;8.55;;;8.50;99.90;;;8.83;58.41;102890.66;5071400;28;20044;-70
2021/04/16 05:35:21;;;;;;;12.07;8.27;;;8.50;99.90;;;8.90;58.12;102890.06;5072727;28;20070;-70
2021/04/16 05:37:48;;;;;;;10.82;8.57;;;8.60;99.90;;;9.10;57.77;102889.88;5072383;28;20109;-70
2021/04/16 05:40:16;;;;;;;13.25;8.90;;;8.80;99.90;;;9.21;57.36;102882.34;5072234;28;20036;-70
2021/04/16 05:42:44;;;;;;;13.15;8.43;;;9.00;99.90;;;9.21;57.32;102886.72;5070975;28;20060;-70
2021/04/16 05:45:20;;;;;;;9.93;8.75;;;9.00;99.90;;;8.85;57.29;102797.53;5072304;28;20044;-70
2021/04/16 05:47:48;;;;;;;10.55;8.35;;;9.10;99.90;;;9.49;57.22;102870.91;5072501;28;20082;-70
2021/04/16 05:50:18;;;;;;;10.20;8.32;;;9.30;99.90;;;9.92;55.90;102890.81;5072511;28;20080;-70
2021/04/16 05:52:46;;;;;;;13.63;8.52;;;9.60;99.90;;;10.15;55.90;102885.34;5072393;28;20044;-70
2021/04/16 05:55:15;;;;;;;10.68;7.45;;;9.80;99.90;;;10.37;55.21;102893.06;5072084;28;20127;-71
2021/04/16 05:57:46;;;;;;;9.98;7.93;;;10.10;99.90;;;10.61;54.78;102889.34;5072280;28;20102;-70
2021/04/16 06:00:18;;;;;;;11.45;8.18;;;10.30;99.90;;;10.65;54.43;102891.22;5072226;28;20044;-70
2021/04/16 06:02:45;;;;;;;9.02;8.13;;;10.30;99.90;;;10.84;54.26;102888.22;5070763;28;20052;-70
2021/04/16 06:05:19;;;;;;;9.23;6.97;;;10.50;99.90;;;11.11;53.76;102888.03;5087595;28;20499;-70
2021/04/16 06:07:49;;;;;;;12.50;7.35;;;10.80;99.90;;;11.24;53.07;102883.97;5072170;28;20049;-70
2021/04/16 06:10:18;;;;;;;10.82;6.75;;;11.00;99.90;;;11.50;52.42;102899.63;5071958;28;20098;-69
2021/04/16 06:12:46;;;;;;;8.70;7.43;;;11.20;99.90;;;11.46;51.84;102900.41;5072189;28;20050;-70
2021/04/16 06:15:17;;;;;;;10.48;6.90;;;11.20;99.90;;;11.68;51.88;102905.44;5072265;28;20056;-70
2021/04/16 06:17:44;;;;;;;8.93;6.88;;;11.40;99.90;;;11.79;51.41;102905.66;5087795;28;20052;-70
2021/04/16 06:20:15;;;;;;;10.18;7.05;;;11.40;99.90;;;11.77;51.25;102905.63;5072035;28;20131;-71
2021/04/16 06:22:43;;;;;;;;;;;11.50;99.90;;;11.85;51.11;102903.16;5072190;28;20051;-70
2021/04/16 06:25:13;;;;;;;8.80;6.72;;;11.60;99.90;;;11.90;50.61;102905.94;5071871;28;19928;-70
2021/04/16 06:27:40;;;;;;;8.27;6.87;;;11.60;99.90;;;11.78;50.99;102891.53;5072034;28;20048;-70
2021/04/16 06:30:10;;;;;;;10.25;7.68;;;11.60;99.90;;;11.86;51.16;102896.09;5071956;28;20045;-70
2021/04/16 06:32:38;;;;;;;8.25;6.60;;;11.60;99.90;;;11.76;51.18;102866.75;5071792;28;20522;-70
2021/04/16 06:35:08;;;;;;;10.13;7.18;;;11.70;99.90;;;11.99;50.71;102885.81;5071785;28;20561;-69
2021/04/16 06:37:35;;;;;;;8.43;6.63;;;11.80;99.90;;;12.06;50.72;102894.81;5072137;28;20045;-70
2021/04/16 06:40:06;;;;;;;10.48;6.50;;;11.90;99.90;;;12.30;50.89;102913.88;5075160;28;20139;-71
2021/04/16 06:42:36;;;;;;;8.35;7.15;;;12.00;99.90;;;12.32;50.40;102912.16;5091181;28;20056;-70
2021/04/16 06:45:10;;;;;;;9.50;6.10;;;12.10;99.90;;;12.24;50.41;102884.56;5075506;28;20052;-70
2021/04/16 06:47:42;;;;;;;8.35;6.47;;;12.10;99.90;;;12.56;50.38;102907.38;5073864;28;20514;-70
2021/04/16 06:50:14;;;;;;;7.90;6.10;;;12.30;99.90;;;12.63;49.99;102909.28;5090997;28;20094;-70
2021/04/16 06:52:47;;;;;;;10.85;6.63;;;12.40;99.90;;;12.68;49.70;102910.25;5075440;28;20055;-70
2021/04/16 06:55:28;;;;;;;7.57;6.10;;;12.40;99.90;;;12.40;49.62;102830.94;5075019;28;20056;-69
2021/04/16 06:58:03;;;;;;;9.38;6.40;;;12.60;99.90;;;12.79;48.86;102908.72;5075420;28;20056;-71
2021/04/16 07:00:43;;;;;;;9.70;6.32;;;12.70;99.90;;;12.85;49.46;102911.50;5075512;28;20044;-72
2021/04/16 07:03:18;;;;;;;9.15;6.55;;;12.60;99.90;;;13.00;49.55;102911.78;5090974;28;20404;-72
2021/04/16 07:05:53;;;;;;;8.25;6.10;;;12.80;99.90;;;13.16;49.17;102895.25;5075277;28;20040;-71
2021/04/16 07:08:29;;;;;;;8.98;5.97;;;13.00;99.90;;;13.44;48.84;102916.13;5075032;28;20090;-71
2021/04/16 07:11:00;;;;;;;6.70;5.85;;;13.30;99.90;;;13.58;48.03;102914.63;5074958;28;20483;-71
2021/04/16 07:13:35;;;;;;;7.78;6.20;;;13.40;99.90;;;13.52;48.16;102892.34;5075016;28;20415;-71
2021/04/16 07:16:05;;;;;;;7.88;5.38;;;13.50;99.90;;;13.82;47.83;102918.53;5074956;28;20052;-72
2021/04/16 07:18:37;;;;;;;7.15;5.72;;;13.60;99.90;;;13.77;47.93;102913.13;5074845;28;20037;-71
2021/04/16 07:21:07;;;;;;;7.38;5.13;;;13.60;99.90;;;13.89;47.84;102907.09;5074872;28;20028;-71
2021/04/16 07:23:46;;;;;;;9.23;5.72;;;13.60;99.90;;;13.92;48.04;102908.03;5074876;28;20067;-71
2021/04/16 07:26:41;;;;;;;9.10;5.32;;;13.70;99.90;;;14.02;48.45;102904.63;5074695;28;20044;-71
2021/04/16 07:29:18;;;;;;;6.15;5.20;;;13.80;99.90;;;13.94;47.80;102890.31;5074736;28;20052;-72
2021/04/16 07:31:49;;;;;;;9.95;5.38;;;13.90;99.90;;;14.07;48.26;102908.22;5074895;28;20048;-71
2021/04/16 07:34:34;;;;;;;9.88;5.32;;;13.90;99.90;;;14.14;48.20;102903.91;5090305;28;20110;-72
2021/04/16 07:37:14;;;;;;;8.38;5.28;;;13.90;99.90;;;14.17;47.74;102902.16;5074569;28;20044;-72
2021/04/16 07:39:49;;;;;;;10.67;5.47;;;14.00;99.90;;;14.24;47.42;102912.03;5074443;28;20788;-71
2021/04/16 07:42:39;;;;;;;9.75;5.50;;;14.00;99.90;;;13.69;47.52;102810.13;5073379;28;20390;-71
2021/04/16 07:45:36;;;;;;;14.00;5.95;;;14.00;99.90;;;14.10;47.24;102899.41;5074568;28;20049;-71
2021/04/16 07:48:36;;;;;;;8.23;5.70;;;14.00;99.90;;;14.28;47.67;102911.25;5074277;28;20045;-71
2021/04/16 07:51:10;;;;;;;11.70;6.05;;;14.10;99.90;;;13.74;47.07;102832.38;5051411;28;20162;-71
2021/04/16 07:53:43;;;;;;;9.20;5.30;;;14.10;99.90;;;14.29;47.14;102914.78;5074303;28;20072;-72
2021/04/16 07:56:19;;;;;;;9.77;5.35;;;14.10;99.90;;;14.50;47.55;102904.41;5089540;28;20044;-72
2021/04/16 07:58:50;;;;;;;11.93;6.43;;;14.30;99.90;;;14.48;46.49;102904.38;5074431;28;20052;-71
2021/04/16 08:01:29;;;;;;;;;;;14.40;99.90;;;14.65;47.24;102909.94;5074335;28;20483;-71
2021/04/16 08:04:02;;;;;;;9.25;6.00;;;14.50;99.90;;;14.80;46.59;102917.19;5074121;28;19920;-72
2021/04/16 08:06:37;;;;;;;10.30;5.60;;;14.60;99.90;;;14.92;46.46;102922.66;5089469;28;20060;-72
2021/04/16 08:09:12;;;;;;;8.88;5.05;;;14.70;99.90;;;14.89;45.67;102918.19;5072550;28;20048;-72
2021/04/16 08:11:41;;;;;;;9.23;5.55;;;14.70;99.90;;;15.12;45.84;102919.31;5074226;28;20074;-71
2021/04/16 08:14:24;;;;;;;7.57;5.15;;;14.90;99.90;;;15.12;44.40;102916.63;5073926;28;20102;-72
2021/04/16 08:16:59;;;;;;;9.23;5.68;;;14.90;99.90;;;15.12;42.81;102911.31;5073706;28;20048;-72
2021/04/16 08:19:31;;;;;;;12.15;5.40;;;15.00;99.90;;;15.21;43.54;102916.72;5089157;28;20121;-72
2021/04/16 08:22:04;;;;;;;5.72;5.20;;;15.00;99.90;;;14.42;43.50;102803.13;5073512;28;20123;-72
2021/04/16 08:24:37;;;;;;;9.63;5.45;;;14.90;99.90;;;14.88;43.88;102863.13;5072408;28;20380;-72
2021/04/16 08:27:24;;;;;;;8.77;6.20;;;14.90;99.90;;;15.28;42.88;102917.69;5073618;28;20043;-72
2021/04/16 08:29:56;;;;;;;8.93;5.70;;;15.00;99.90;;;15.23;43.14;102920.28;5073472;28;20122;-73
2021/04/16 08:32:31;;;;;;;6.63;5.05;;;15.10;99.90;;;15.53;43.00;102911.72;5073435;28;20491;-72
2021/04/16 08:35:03;;;;;;;9.65;5.07;;;15.30;99.90;;;15.58;43.14;102911.75;5073496;28;20055;-72
2021/04/16 08:37:37;;;;;;;9.02;5.28;;;15.40;99.90;;;15.70;42.51;102910.06;5073577;28;20045;-72
2021/04/16 08:40:12;;;;;;;6.50;5.40;;;15.50;99.90;;;15.79;42.67;102910.16;5073371;28;20044;-72
2021/04/16 08:42:39;;;;;;;9.27;6.22;;;15.60;99.90;;;15.92;42.14;102908.44;5073516;28;20057;-73
2021/04/16 08:45:14;;;;;;;10.45;5.88;;;15.70;99.90;;;16.01;41.65;102908.47;5089035;28;20513;-72
2021/04/16 08:47:53;;;;;;;10.60;5.93;;;15.80;99.90;;;16.12;41.40;102890.75;5072088;28;20048;-73
2021/04/16 08:50:26;;;;;;;9.77;6.28;;;15.90;99.90;;;16.14;40.16;102910.34;5072986;28;20136;-72
2021/04/16 08:52:57;;;;;;;8.85;5.63;;;16.00;99.90;;;15.93;39.27;102902.22;5073030;28;20044;-72
2021/04/16 08:55:31;;;;;;;9.25;6.03;;;15.90;99.90;;;15.99;40.27;102904.91;5072945;28;20053;-72
2021/04/16 08:58:04;;;;;;;8.57;6.00;;;15.90;99.90;;;16.03;39.45;102899.59;5072884;28;20048;-73
2021/04/16 09:00:41;;;;;;;10.38;6.65;;;15.90;99.90;;;16.23;39.82;102907.72;5071372;28;20051;-73
2021/04/16 09:03:17;;;;;;;14.73;7.32;;;16.00;99.90;;;16.22;39.40;102903.25;5072695;28;20174;-73
2021/04/16 09:05:58;;;;;;;13.85;7.32;;;16.10;99.90;;;16.33;40.08;102906.00;5073036;28;20462;-72
2021/04/16 09:08:28;;;;;;;;;;;16.10;99.90;;;16.41;40.32;102902.47;5073435;28;20048;-72
2021/04/16 09:10:59;;;;;;;11.23;7.70;;;16.30;99.90;;;15.87;39.84;102792.75;5072976;28;19921;-73
2021/04/16 09:13:58;;;;;;;13.73;8.80;;;16.40;99.90;;;16.55;38.41;102906.09;5071424;28;20041;-73
2021/04/16 09:16:51;;;;;;;15.68;9.85;;;16.40;99.90;;;16.77;38.05;102905.31;5073139;28;20140;-72
2021/04/16 09:19:59;;;;;;;11.68;8.60;;;16.60;99.90;;;16.88;37.33;102898.19;5072609;28;20048;-72
2021/04/16 09:22:49;;;;;;;14.25;11.15;;;16.70;99.90;;;16.79;36.90;102892.84;5072703;28;20131;-72
2021/04/16 09:25:47;;;;;;;13.32;9.82;;;16.70;99.90;;;17.24;37.27;102899.13;5072411;28;20514;-73
2021/04/16 09:28:50;;;;;;;14.73;9.73;;;17.00;99.90;;;17.27;37.00;102897.34;5068291;28;20107;-74
2021/04/16 09:31:52;;;;;;;13.68;9.35;;;17.10;99.90;;;17.05;34.99;102893.75;5072674;28;20056;-72
2021/04/16 09:34:24;;;;;;;12.32;9.05;;;17.10;99.90;;;17.11;36.29;102900.94;5087999;28;20063;-73
2021/04/16 09:37:14;;;;;;;14.23;10.30;;;16.90;99.90;;;16.88;35.73;102857.19;5072615;28;20057;-73
2021/04/16 09:39:59;;;;;;;16.70;10.38;;;16.90;99.90;;;16.51;37.41;102898.09;5072493;28;20045;-73
2021/04/16 09:42:37;;;;;;;13.38;10.25;;;16.30;99.90;;;16.81;35.55;102891.06;5071109;28;20041;-72
2021/04/16 09:45:42;;;;;;;12.93;9.13;;;16.60;99.90;;;16.30;36.69;102825.88;5072862;28;20071;-72
2021/04/16 09:48:26;;;;;;;12.45;9.13;;;16.40;99.90;;;16.65;34.39;102883.88;5072220;28;20055;-72
2021/04/16 09:51:30;;;;;;;13.77;8.60;;;16.60;99.90;;;16.61;35.15;102875.84;5072530;28;20102;-72
2021/04/16 09:54:34;;;;;;;14.27;8.93;;;16.50;99.90;;;16.87;34.73;102877.72;5088040;28;20407;-73
2021/04/16 09:57:43;;;;;;;11.20;9.18;;;16.70;99.90;;;16.42;37.08;102879.31;5059559;28;20114;-73
2021/04/16 10:01:06;;;;;;;13.77;8.95;;;16.20;99.90;;;16.73;36.08;102878.56;5072271;28;20044;-72
2021/04/16 10:03:45;;;;;;;15.75;9.55;;;16.50;99.90;;;15.81;34.83;102768.69;5072047;28;20059;-72
2021/04/16 10:06:40;;;;;;;13.85;9.55;;;16.40;99.90;;;16.35;36.04;102849.03;5072169;28;20062;-72
2021/04/16 10:09:24;;;;;;;12.07;7.80;;;16.20;99.90;;;16.81;35.02;102877.69;5062566;28;20056;-72
2021/04/16 10:11:56;;;;;;;10.13;7.95;;;16.50;99.90;;;17.13;34.61;102875.94;5070793;28;20110;-72
2021/04/16 10:14:31;;;;;;;9.20;7.40;;;16.80;99.90;;;17.22;33.77;102855.44;5076364;28;20103;-72
2021/04/16 10:17:02;;;;;;;8.48;6.80;;;17.00;99.90;;;16.87;33.75;102845.63;5076132;28;20060;-73
2021/04/16 10:19:34;;;;;;;12.15;8.43;;;16.90;99.90;;;17.14;33.26;102858.13;5075970;28;20509;-73
2021/04/16 10:22:11;;;;;;;10.73;7.80;;;17.00;99.90;;;17.04;34.87;102857.22;5075973;28;20493;-72
2021/04/16 12:38:43;;;;;;;12.18;5.82;;;15.10;99.90;;;15.19;45.20;102779.84;5073474;28;20413;-71
2021/04/16 12:41:17;;;;;;;9.70;6.50;;;15.00;99.90;;;15.19;44.51;102779.84;5072041;28;20565;-71
2021/04/16 12:43:46;;;;;;;12.55;6.63;;;15.00;99.90;;;15.24;44.94;102785.22;5073332;28;20033;-71
2021/04/16 12:46:17;;;;;;;10.13;6.25;;;15.00;99.90;;;15.34;44.83;102773.72;5072777;28;20109;-71
2021/04/16 12:48:45;;;;;;;13.52;6.68;;;15.10;99.90;;;15.43;44.96;102767.63;5073289;28;20051;-71
2021/04/16 12:51:14;;;;;;;9.85;6.28;;;15.20;99.90;;;15.21;45.36;102770.06;5072965;28;20044;-71
2021/04/16 12:53:42;;;;;;;10.50;6.38;;;15.00;99.90;;;14.53;45.92;102757.06;5073047;28;20051;-71
2021/04/16 12:56:15;;;;;;;13.18;6.80;;;14.50;99.90;;;14.52;46.60;102764.16;5073044;28;20063;-72